Home > Products > Valid Products > TAF

000
FTUS44 KTSA 251700
TAFXNA
TAF
KXNA 251720Z 2518/2618 27012G21KT P6SM SKC
     FM260000 27005KT P6SM FEW250
     FM260300 VRB03KT P6SM SCT250
     FM261200 04008KT P6SM BKN012=



000
FTUS44 KTSA 251700
TAFTUL
TAF
KTUL 251720Z 2518/2618 27010G18KT P6SM SKC
     FM260000 32007KT P6SM SCT250
     FM260300 01007KT P6SM SCT250
     FM261100 03008KT P6SM BKN012
     FM261500 05012KT P6SM BKN012=



000
FTUS44 KTSA 251700
TAFFSM
TAF
KFSM 251720Z 2518/2618 26013KT P6SM SKC
     FM260000 26008KT P6SM FEW250
     FM260300 VRB05KT P6SM SCT250
     FM261200 08008KT P6SM SCT250=



000
FTUS44 KTSA 251700
TAFRVS
TAF
KRVS 251720Z 2518/2618 VRB04KT P6SM SKC
     FM260000 32006KT P6SM SCT250
     FM260300 01005KT P6SM SCT250
     FM261100 04008KT P6SM BKN012=



000
FTUS44 KTSA 251700
TAFMLC
TAF
KMLC 251720Z 2518/2618 21008KT P6SM SKC
     FM260000 22006KT P6SM SKC
     FM260600 VRB05KT P6SM SCT250
     FM261200 04005KT P6SM SCT250=



000
FTUS44 KTSA 251700
TAFFYV
TAF
KFYV 251720Z 2518/2618 23016G24KT P6SM SKC
     FM260000 27005KT P6SM FEW250
     FM260300 VRB03KT P6SM SCT250
     FM261300 04008KT P6SM BKN012=



000
FTUS44 KTSA 251100
TAFRVS
TAF
KRVS 251140Z 2512/2612 22010KT P6SM SKC
     FM251500 25007G15KT P6SM SKC
     FM260000 32006KT P6SM SKC
     FM260300 01005KT P6SM SCT070
     FM260800 04008KT P6SM BKN012=



000
FTUS44 KTSA 251100
TAFRVS
TAF
KRVS 251140Z 2512/2612 22010KT P6SM SKC
     FM251500 25007G15KT P6SM SKC
     FM260000 32006KT P6SM SKC
     FM260300 01005KT P6SM SCT070
     FM260800 04008KT P6SM BKN012=



000
FTUS44 KTSA 251100
TAFTUL
TAF
KTUL 251140Z 2512/2612 23012KT P6SM SKC
     FM251500 26012G20KT P6SM SKC
     FM260000 32007KT P6SM SKC
     FM260300 01007KT P6SM SCT070
     FM260800 03008KT P6SM BKN012=



000
FTUS44 KTSA 251100
TAFFSM
TAF
KFSM 251140Z 2512/2612 08007KT 3SM BR BKN004
      TEMPO 2512/2514 1/4SM FG OVC001
     FM251400 12010KT P6SM SKC
     FM251600 25016G24KT P6SM SKC
     FM260000 26008KT P6SM SKC
     FM260300 VRB05KT P6SM SCT070=



000
FTUS44 KTSA 251100
TAFFYV
TAF
KFYV 251140Z 2512/2612 21014KT P6SM SKC
     FM251500 24015G23KT P6SM SKC
     FM260000 27005KT P6SM SCT070
     FM260300 01005KT P6SM SCT070
     FM260900 04008KT P6SM BKN012=



000
FTUS44 KTSA 251100
TAFMLC
TAF
KMLC 251140Z 2512/2612 21011G17KT P6SM SKC
     FM251500 24013G20KT P6SM SKC
     FM260000 22006KT P6SM SKC
     FM260600 VRB05KT P6SM SCT100=



000
FTUS44 KTSA 251100
TAFXNA
TAF
KXNA 251140Z 2512/2612 21014G20KT P6SM SKC
     FM251500 24017G25KT P6SM SKC
     FM260000 30007KT P6SM SCT070
     FM260300 35006KT P6SM SCT070
     FM260800 03008KT P6SM BKN012=



000
FTUS44 KTSA 251100
TAFXNA
TAF
KXNA 251140Z 2512/2612 21014G20KT P6SM SKC
     FM251500 24017G25KT P6SM SKC
     FM260000 30007KT P6SM SCT070
     FM260300 35006KT P6SM SCT070
     FM260800 03008KT P6SM BKN012=



000
FTUS44 KTSA 251100
TAFMLC
TAF
KMLC 251140Z 2512/2612 21011G17KT P6SM SKC
     FM251500 24013G20KT P6SM SKC
     FM260000 22006KT P6SM SKC
     FM260600 VRB05KT P6SM SCT100=



000
FTUS44 KTSA 251100
TAFTUL
TAF
KTUL 251140Z 2512/2612 23012KT P6SM SKC
     FM251500 26012G20KT P6SM SKC
     FM260000 32007KT P6SM SKC
     FM260300 01007KT P6SM SCT070
     FM260800 03008KT P6SM BKN012=



000
FTUS44 KTSA 251100
TAFFSM
TAF
KFSM 251140Z 2512/2612 08007KT 3SM BR BKN004
      TEMPO 2512/2514 1/4SM FG OVC001
     FM251400 12010KT P6SM SKC
     FM251600 25016G24KT P6SM SKC
     FM260000 26008KT P6SM SKC
     FM260300 VRB05KT P6SM SCT070=



000
FTUS44 KTSA 251100
TAFFYV
TAF
KFYV 251140Z 2512/2612 21014KT P6SM SKC
     FM251500 24015G23KT P6SM SKC
     FM260000 27005KT P6SM SCT070
     FM260300 01005KT P6SM SCT070
     FM260900 04008KT P6SM BKN012=



000
FTUS44 KTSA 251000 AAB
TAFFSM
TAF AMD
KFSM 251004Z 2510/2606 07007KT 3SM BR BKN004
      TEMPO 2510/2512 1/4SM FG OVC001
     FM251300 08008KT P6SM SCT100
     FM251500 25016G24KT P6SM SKC
     FM260000 26008KT P6SM SKC
     FM260300 28003KT P6SM SCT150=



000
FTUS44 KTSA 250800 AAA
TAFFSM
TAF AMD
KFSM 250801Z 2508/2606 07007KT P6SM BKN004
      TEMPO 2508/2510 1 1/2SM BR OVC002
     FM251100 08008KT P6SM SCT100
     FM251500 25016G24KT P6SM SKC
     FM260000 26008KT P6SM SKC
     FM260300 28003KT P6SM SCT150=



000
FTUS44 KTSA 250700 AAA
TAFMLC
TAF AMD
KMLC 250709Z 2507/2606 16011KT P6SM BKN007
     FM250900 15010KT P6SM SCT100
     FM251500 24013G20KT P6SM SKC
     FM260000 22006KT P6SM SCT200=



000
FTUS44 KTSA 250700 AAA
TAFMLC
TAF AMD
KMLC 250709Z 2507/2606 16011KT P6SM BKN007
     FM250900 15010KT P6SM SCT100
     FM251500 24013G20KT P6SM SKC
     FM260000 22006KT P6SM SCT200=



000
FTUS44 KTSA 250500
TAFXNA
TAF
KXNA 250520Z 2506/2606 18014KT P6SM SCT100 SCT250
     FM251500 24017G25KT P6SM SCT150
     FM260000 28006KT P6SM SCT100=



000
FTUS44 KTSA 250500
TAFFYV
TAF
KFYV 250520Z 2506/2606 17014KT P6SM SCT100 SCT250
     FM251500 24015G23KT P6SM SCT150
     FM260000 27005KT P6SM SCT100=



000
FTUS44 KTSA 250500
TAFRVS
TAF
KRVS 250520Z 2506/2606 18010KT P6SM SCT100 SCT250
     FM251500 24007G15KT P6SM SKC
     FM260100 01003KT P6SM SCT100=



000
FTUS44 KTSA 250500
TAFMLC
TAF
KMLC 250520Z 2506/2606 16010KT P6SM SCT100 SCT250
     FM251500 24013G20KT P6SM SKC
     FM260000 22006KT P6SM SCT200=



000
FTUS44 KTSA 250500
TAFTUL
TAF
KTUL 250520Z 2506/2606 17015KT P6SM SCT100 SCT250
     FM251500 27012G20KT P6SM SKC
     FM260000 32007KT P6SM SCT100=



000
FTUS44 KTSA 250500
TAFFSM
TAF
KFSM 250520Z 2506/2606 10009KT P6SM SCT009 SCT100
      TEMPO 2506/2510 BKN009
     FM251100 23010KT P6SM SCT100
     FM251500 25016G24KT P6SM SKC
     FM260000 26008KT P6SM SKC
     FM260300 28003KT P6SM SCT150=



000
FTUS44 KTSA 250300 AAA
TAFFSM
TAF AMD
KFSM 250342Z 2504/2524 06007KT P6SM SCT011 BKN100
     FM250900 19013KT P6SM BKN120
     FM251500 24015G23KT P6SM SCT150 SCT250=



000
FTUS44 KTSA 250100 AAA
TAFMLC
TAF AMD
KMLC 250127Z 2501/2524 14010KT P6SM BKN100
     FM250600 18011KT P6SM BKN150
     FM251500 22013G21KT P6SM SCT250=



000
FTUS44 KTSA 242300
TAFMLC
TAF
KMLC 242339Z 2500/2524 15009KT P6SM SCT015 SCT050 OVC110
      TEMPO 2500/2503 5SM -SHRA BKN015 OVC050
     FM250600 17010KT P6SM BKN150
     FM251500 22013G21KT P6SM SCT250=



000
FTUS44 KTSA 242300
TAFRVS
TAF
KRVS 242339Z 2500/2524 20011G19KT P6SM SCT025 BKN140
     FM251000 19008KT P6SM SCT250
     FM251500 24006KT P6SM FEW250=



000
FTUS44 KTSA 242300
TAFXNA
TAF
KXNA 242339Z 2500/2524 17013KT P6SM BKN120
     FM251500 25013G20KT P6SM SCT150 SCT250=



000
FTUS44 KTSA 242300
TAFFYV
TAF
KFYV 242339Z 2500/2524 17010KT P6SM OVC110
     FM250200 16012KT P6SM SCT015 BKN120
      TEMPO 2502/2505 BKN015 OVC120
     FM251400 21015KT P6SM SCT150 SCT250=



000
FTUS44 KTSA 242300
TAFFSM
TAF
KFSM 242339Z 2500/2524 10008KT P6SM VCSH SCT009 OVC100
      TEMPO 2500/2503 5SM -SHRA BKN009 OVC100
     FM250300 12008KT 5SM BR BKN009 OVC100
     FM250800 19013KT P6SM BKN120
     FM251500 24015G23KT P6SM SCT150 SCT250=



000
FTUS44 KTSA 242300
TAFTUL
TAF
KTUL 242339Z 2500/2524 18015G25KT P6SM SCT025 BKN140
     FM251100 20010KT P6SM SCT250
     FM251500 26010KT P6SM FEW250=



000
FTUS44 KTSA 242200 AAA
TAFFSM
TAF AMD
KFSM 242227Z 2422/2518 04008KT P6SM VCSH BKN006 OVC120
      TEMPO 2422/2502 4SM TSRA BR BKN015CB
     FM250300 12012KT P6SM BKN015
     FM250900 11009KT P6SM BKN100
     FM251400 26011KT P6SM SCT250=



000
FTUS44 KTSA 241700
TAFMLC
TAF
KMLC 241721Z 2418/2518 16008G16KT P6SM -SHRA SCT050 BKN110
      TEMPO 2422/2502 4SM TSRA BR BKN015CB
     FM250300 19012KT P6SM BKN015
     FM250900 19009KT P6SM BKN100
     FM251400 26008KT P6SM SCT250=



000
FTUS44 KTSA 241700
TAFRVS
TAF
KRVS 241721Z 2418/2518 19012KT P6SM SCT017 BKN250
     FM241900 17017G26KT P6SM BKN050
     FM250400 17011G16KT P6SM BKN015
     FM250900 19011KT P6SM BKN100
     FM251500 27010KT P6SM BKN250=



000
FTUS44 KTSA 241700
TAFFYV
TAF
KFYV 241721Z 2418/2518 20014KT P6SM SCT025 SCT250
     FM242000 17013G20KT P6SM BKN050
     FM250000 17012G19KT P6SM VCTS BKN015CB
     FM250400 19012KT P6SM BKN015
     FM250900 20014KT P6SM SCT250=



000
FTUS44 KTSA 241700
TAFFSM
TAF
KFSM 241721Z 2418/2518 09010KT P6SM VCSH SCT025 BKN250
      TEMPO 2422/2502 4SM TSRA BR BKN015CB
     FM250300 12012KT P6SM BKN015
     FM250900 11009KT P6SM BKN100
     FM251400 26011KT P6SM SCT250=



000
FTUS44 KTSA 241700
TAFFSM
TAF
KFSM 241721Z 2418/2518 09010KT P6SM VCSH SCT025 BKN250
      TEMPO 2422/2502 4SM TSRA BR BKN015CB
     FM250300 12012KT P6SM BKN015
     FM250900 11009KT P6SM BKN100
     FM251400 26011KT P6SM SCT250=



000
FTUS44 KTSA 241700
TAFXNA
TAF
KXNA 241721Z 2418/2518 17014KT P6SM SCT025 SCT250
     FM242000 17013G20KT P6SM BKN050
     FM250000 17012G19KT P6SM VCTS BKN015CB
     FM250400 19012KT P6SM BKN015
     FM250900 20014KT P6SM SCT250=



000
FTUS44 KTSA 241700
TAFRVS
TAF
KRVS 241721Z 2418/2518 19012KT P6SM SCT017 BKN250
     FM241900 17017G26KT P6SM BKN050
     FM250400 17011G16KT P6SM BKN015
     FM250900 19011KT P6SM BKN100
     FM251500 27010KT P6SM BKN250=



000
FTUS44 KTSA 241700
TAFXNA
TAF
KXNA 241721Z 2418/2518 17014KT P6SM SCT025 SCT250
     FM242000 17013G20KT P6SM BKN050
     FM250000 17012G19KT P6SM VCTS BKN015CB
     FM250400 19012KT P6SM BKN015
     FM250900 20014KT P6SM SCT250=



000
FTUS44 KTSA 241700
TAFTUL
TAF
KTUL 241721Z 2418/2518 18013G19KT P6SM SCT017 BKN250
     FM242000 17020G28KT P6SM BKN050
     FM250400 17015G22KT P6SM BKN015
     FM250900 19012KT P6SM BKN100
     FM251500 27012KT P6SM BKN250=



000
FTUS44 KTSA 241700
TAFFYV
TAF
KFYV 241721Z 2418/2518 20014KT P6SM SCT025 SCT250
     FM242000 17013G20KT P6SM BKN050
     FM250000 17012G19KT P6SM VCTS BKN015CB
     FM250400 19012KT P6SM BKN015
     FM250900 20014KT P6SM SCT250=



000
FTUS44 KTSA 241700
TAFMLC
TAF
KMLC 241721Z 2418/2518 16008G16KT P6SM -SHRA SCT050 BKN110
      TEMPO 2422/2502 4SM TSRA BR BKN015CB
     FM250300 19012KT P6SM BKN015
     FM250900 19009KT P6SM BKN100
     FM251400 26008KT P6SM SCT250=



000
FTUS44 KTSA 241700
TAFTUL
TAF
KTUL 241721Z 2418/2518 18013G19KT P6SM SCT017 BKN250
     FM242000 17020G28KT P6SM BKN050
     FM250400 17015G22KT P6SM BKN015
     FM250900 19012KT P6SM BKN100
     FM251500 27012KT P6SM BKN250=



000
FTUS44 KTSA 241100 RRA
TAFFYV
TAF
KFYV 241140Z 2412/2512 15007KT P6SM SCT025 OVC035
     FM241500 16012KT P6SM VCTS BKN025CB
     FM242000 17013G20KT P6SM BKN050
     FM250100 17012G19KT P6SM BKN015 PROB30 2503/2509 4SM -TSRA
      OVC015CB=



000
FTUS44 KTSA 241100 RRA
TAFXNA
TAF
KXNA 241140Z 2412/2512 15010KT P6SM SCT025 OVC040
     FM241500 15013KT P6SM VCTS OVC025CB
     FM242000 17015G22KT P6SM BKN045
     FM250100 17012G19KT P6SM BKN015 PROB30 2503/2509 4SM -TSRA
      OVC015CB=



000
FTUS44 KTSA 241100 RRA
TAFFSM
TAF
KFSM 241140Z 2412/2512 08012KT P6SM OVC040
     FM241600 16014KT 4SM -TSRA OVC015CB
     FM242100 11012KT P6SM SCT015 BKN035
     FM250000 13009KT P6SM OVC015 PROB30 2503/2509 4SM -TSRA
      OVC015CB=



000
FTUS44 KTSA 241100 RRA
TAFTUL
TAF
KTUL 241140Z 2412/2512 16013KT P6SM OVC018
     FM241600 17015G22KT P6SM BKN025
     FM241900 17020G28KT P6SM BKN050
      TEMPO 2500/2504 4SM TSRA BKN035CB
     FM250400 17015G22KT P6SM BKN015
     FM250900 19012KT P6SM BKN100=



000
FTUS44 KTSA 241100 RRA
TAFRVS
TAF
KRVS 241140Z 2412/2512 16012KT P6SM OVC015
     FM241600 17015G22KT P6SM BKN025
     FM241900 17017G26KT P6SM BKN050
      TEMPO 2500/2504 4SM TSRA BKN035CB
     FM250400 17011G16KT P6SM BKN015
     FM250900 19011KT P6SM BKN100=



000
FTUS44 KTSA 241100 RRA
TAFMLC
TAF
KMLC 241140Z 2412/2512 15008KT P6SM VCTS OVC012CB
     FM241500 16009KT 5SM -TSRA BR SCT008 BKN015CB
     FM241900 17012G20KT P6SM SCT025 BKN040
     FM242300 18009G18KT P6SM BKN025 PROB30 2500/2505 4SM TSRA
      BKN015CB
     FM250500 19012KT P6SM BKN015
     FM250900 19009KT P6SM BKN100=



000
FTUS44 KTSA 240900 AAA
TAFMLC
TAF AMD
KMLC 240903Z 2409/2506 12007KT P6SM BKN015
     FM241200 15008KT 5SM BR OVC015
     FM241500 16009KT 5SM BR VCTS BKN015 OVC030CB
     FM241800 17012KT 5SM TSRA BKN015 OVC030CB
     FM242200 18009G18KT P6SM OVC035
     FM250300 17009KT P6SM SCT025 BKN100=



000
FTUS44 KTSA 240500
TAFFSM
TAF
KFSM 240520Z 2406/2506 07006KT P6SM SCT025 SCT040
     FM241200 08012KT P6SM VCSH SCT025 OVC040
     FM242100 11009KT 4SM TSRA BR BKN030 OVC045CB
     FM250200 11009KT 4SM -SHRA BR OVC015=



000
FTUS44 KTSA 240500
TAFFYV
TAF
KFYV 240520Z 2406/2506 11004KT P6SM BKN040
     FM241000 17005KT P6SM VCSH SCT030 OVC040
     FM241500 16010KT P6SM OVC030
     FM242100 17011KT 4SM -TSRA BKN030 OVC045CB
     FM250100 17012G19KT 4SM -SHRA BR OVC015=



000
FTUS44 KTSA 240500
TAFXNA
TAF
KXNA 240520Z 2406/2506 13007KT P6SM OVC040
     FM241000 15005KT P6SM VCSH SCT030 OVC040
     FM241500 15010KT P6SM OVC030
     FM242100 17011KT 4SM -TSRA BKN030 OVC045CB
     FM250100 17012G19KT 4SM -SHRA BR OVC015=



000
FTUS44 KTSA 240500
TAFMLC
TAF
KMLC 240520Z 2406/2506 11007KT P6SM BKN025 BKN035
     FM241200 15008KT 5SM BR OVC015
     FM241500 16009KT 5SM BR VCTS BKN015 OVC030CB
     FM241800 17012KT 5SM TSRA BKN015 OVC030CB
     FM242200 18009G18KT P6SM OVC035
     FM250300 17009KT P6SM SCT025 BKN100=



000
FTUS44 KTSA 240500
TAFTUL
TAF
KTUL 240520Z 2406/2506 13010KT P6SM OVC030
     FM241200 15012KT P6SM OVC020
     FM241800 17020KT P6SM BKN035 OVC050
      TEMPO 2418/2422 4SM TSRA BKN035CB
     FM250300 17015G22KT P6SM OVC015=



000
FTUS44 KTSA 240500
TAFRVS
TAF
KRVS 240520Z 2406/2506 13009G15KT P6SM OVC030
     FM241200 15010KT P6SM OVC020
     FM241800 17017KT P6SM BKN035 OVC050
      TEMPO 2418/2422 4SM TSRA BKN035CB
     FM250300 17013KT P6SM OVC015=



000
FTUS44 KTSA 240300 AAA
TAFFSM
TAF AMD
KFSM 240304Z 2403/2424 09008KT P6SM SCT025 SCT040
     FM241200 08007KT P6SM VCSH OVC025
     FM241800 16011KT P6SM BKN035 OVC050
      TEMPO 2419/2423 4SM TSRA BKN035CB=



000
FTUS44 KTSA 240300 AAA
TAFFSM
TAF AMD
KFSM 240304Z 2403/2424 09008KT P6SM SCT025 SCT040
     FM241200 08007KT P6SM VCSH OVC025
     FM241800 16011KT P6SM BKN035 OVC050
      TEMPO 2419/2423 4SM TSRA BKN035CB=



000
FTUS44 KTSA 240300 AAB
TAFXNA
TAF AMD
KXNA 240303Z 2403/2424 15013KT P6SM SCT040 SCT100
     FM241200 14012KT P6SM VCSH OVC040
     FM241800 18015KT P6SM BKN040 OVC150 PROB30 2420/2424 5SM TSRA
      BKN040CB=



000
FTUS44 KTSA 240300 AAB
TAFMLC
TAF AMD
KMLC 240302Z 2403/2424 VRB03KT P6SM BKN022 BKN035 OVC060
     FM240600 13006KT P6SM OVC020
     FM241200 14009KT P6SM VCSH OVC015
     FM241800 19011KT P6SM OVC020 PROB30 2418/2422 4SM TSRA BKN020
      OVC050CB=



000
FTUS44 KTSA 240300 AAA
TAFFYV
TAF AMD
KFYV 240302Z 2403/2424 14006KT P6SM OVC045
     FM241200 16008KT P6SM VCSH OVC040
     FM241800 18014KT P6SM BKN040 OVC150 PROB30 2420/2424 5SM TSRA
      BKN040CB=



000
FTUS44 KTSA 240100 AAA
TAFXNA
TAF AMD
KXNA 240129Z 2401/2424 12006KT P6SM BKN028 OVC050
     FM241200 14012KT P6SM VCSH OVC040
     FM241800 18015KT P6SM BKN040 OVC150 PROB30 2420/2424 5SM TSRA
      BKN040CB=



000
FTUS44 KTSA 240100 AAA
TAFXNA
TAF AMD
KXNA 240129Z 2401/2424 12006KT P6SM BKN028 OVC050
     FM241200 14012KT P6SM VCSH OVC040
     FM241800 18015KT P6SM BKN040 OVC150 PROB30 2420/2424 5SM TSRA
      BKN040CB=



000
FTUS44 KTSA 240100 AAA
TAFRVS
TAF AMD
KRVS 240114Z 2401/2424 14008KT P6SM OVC025
     FM241000 13010KT P6SM VCSH OVC025
     FM241500 16013KT 5SM BR OVC015
     FM241700 17015KT P6SM SCT025 OVC100 PROB30 2418/2421 4SM TSRA
      BKN050CB=



000
FTUS44 KTSA 240100 AAA
TAFMLC
TAF AMD
KMLC 240114Z 2401/2424 VRB05KT P6SM BKN035 OVC060
     FM240600 13006KT P6SM OVC020
     FM241200 14009KT P6SM VCSH OVC015
     FM241800 19011KT P6SM OVC020 PROB30 2418/2422 4SM TSRA BKN020
      OVC050CB=



000
FTUS44 KTSA 240100 AAA
TAFRVS
TAF AMD
KRVS 240114Z 2401/2424 14008KT P6SM OVC025
     FM241000 13010KT P6SM VCSH OVC025
     FM241500 16013KT 5SM BR OVC015
     FM241700 17015KT P6SM SCT025 OVC100 PROB30 2418/2421 4SM TSRA
      BKN050CB=



000
FTUS44 KTSA 232300
TAFFYV
TAF
KFYV 232340Z 2400/2424 15008KT P6SM BKN025 OVC040
      TEMPO 2400/2404 SCT025 OVC040
     FM241200 16008KT P6SM VCSH OVC040
     FM241800 18014KT P6SM BKN040 OVC150 PROB30 2420/2424 5SM TSRA
      BKN040CB=



000
FTUS44 KTSA 232300
TAFFSM
TAF
KFSM 232340Z 2400/2424 11008KT P6SM OVC025
     FM241200 08007KT P6SM VCSH OVC025
     FM241800 16011KT P6SM BKN035 OVC050
      TEMPO 2419/2423 4SM TSRA BKN035CB=



000
FTUS44 KTSA 232300
TAFRVS
TAF
KRVS 232340Z 2400/2424 13009KT P6SM SCT025 OVC035
      TEMPO 2402/2406 BKN025 OVC035
     FM241000 13010KT P6SM VCSH OVC025
     FM241500 16013KT 5SM BR OVC015
     FM241700 17015KT P6SM SCT025 OVC100 PROB30 2418/2421 4SM TSRA
      BKN050CB=



000
FTUS44 KTSA 232300
TAFFSM
TAF
KFSM 232340Z 2400/2424 11008KT P6SM OVC025
     FM241200 08007KT P6SM VCSH OVC025
     FM241800 16011KT P6SM BKN035 OVC050
      TEMPO 2419/2423 4SM TSRA BKN035CB=



000
FTUS44 KTSA 232300
TAFFYV
TAF
KFYV 232340Z 2400/2424 15008KT P6SM BKN025 OVC040
      TEMPO 2400/2404 SCT025 OVC040
     FM241200 16008KT P6SM VCSH OVC040
     FM241800 18014KT P6SM BKN040 OVC150 PROB30 2420/2424 5SM TSRA
      BKN040CB=



000
FTUS44 KTSA 232300
TAFXNA
TAF
KXNA 232340Z 2400/2424 09007KT P6SM OVC040
     FM241200 14012KT P6SM VCSH OVC040
     FM241800 18015KT P6SM BKN040 OVC150 PROB30 2420/2424 5SM TSRA
      BKN040CB=



000
FTUS44 KTSA 232300
TAFMLC
TAF
KMLC 232340Z 2400/2424 09006KT P6SM OVC028
     FM240600 13006KT P6SM OVC020
     FM241200 14009KT P6SM VCSH OVC015
     FM241800 19011KT P6SM OVC020 PROB30 2418/2422 4SM TSRA BKN020
      OVC050CB=



000
FTUS44 KTSA 232300
TAFTUL
TAF
KTUL 232340Z 2400/2424 12007KT P6SM SCT025 BKN035
      TEMPO 2400/2404 BKN025 OVC035
     FM241000 13012KT P6SM VCSH OVC025
     FM241500 16016KT 5SM BR OVC015
     FM241700 17020KT P6SM SCT025 OVC100 PROB30 2418/2421 4SM TSRA
      BKN050CB=



000
FTUS44 KTSA 232300
TAFRVS
TAF
KRVS 232340Z 2400/2424 13009KT P6SM SCT025 OVC035
      TEMPO 2402/2406 BKN025 OVC035
     FM241000 13010KT P6SM VCSH OVC025
     FM241500 16013KT 5SM BR OVC015
     FM241700 17015KT P6SM SCT025 OVC100 PROB30 2418/2421 4SM TSRA
      BKN050CB=



000
FTUS44 KTSA 232300
TAFTUL
TAF
KTUL 232340Z 2400/2424 12007KT P6SM SCT025 BKN035
      TEMPO 2400/2404 BKN025 OVC035
     FM241000 13012KT P6SM VCSH OVC025
     FM241500 16016KT 5SM BR OVC015
     FM241700 17020KT P6SM SCT025 OVC100 PROB30 2418/2421 4SM TSRA
      BKN050CB=



000
FTUS44 KTSA 232300
TAFXNA
TAF
KXNA 232340Z 2400/2424 09007KT P6SM OVC040
     FM241200 14012KT P6SM VCSH OVC040
     FM241800 18015KT P6SM BKN040 OVC150 PROB30 2420/2424 5SM TSRA
      BKN040CB=



000
FTUS44 KTSA 232300
TAFMLC
TAF
KMLC 232340Z 2400/2424 09006KT P6SM OVC028
     FM240600 13006KT P6SM OVC020
     FM241200 14009KT P6SM VCSH OVC015
     FM241800 19011KT P6SM OVC020 PROB30 2418/2422 4SM TSRA BKN020
      OVC050CB=



000
FTUS44 KTSA 232200 AAB
TAFFSM
TAF AMD
KFSM 232221Z 2322/2418 11011KT P6SM OVC025 PROB30 2412/2418 4SM
      -TSRA OVC015CB=



000
FTUS44 KTSA 232200 AAB
TAFFSM
TAF AMD
KFSM 232221Z 2322/2418 11011KT P6SM OVC025 PROB30 2412/2418 4SM
      -TSRA OVC015CB=



000
FTUS44 KTSA 232100 AAA
TAFTUL
TAF AMD
KTUL 232142Z 2322/2418 12008KT P6SM SCT024 OVC250 PROB30 2409/2415
      4SM -TSRA OVC015CB
     FM241500 16014KT P6SM OVC015=



000
FTUS44 KTSA 232100 AAA
TAFRVS
TAF AMD
KRVS 232126Z 2321/2418 15007KT P6SM SCT025 BKN035 PROB30 2409/2415
      4SM -TSRA OVC015CB
     FM241500 16012KT P6SM OVC015=



000
FTUS44 KTSA 232100 AAA
TAFRVS
TAF AMD
KRVS 232126Z 2321/2418 15007KT P6SM SCT025 BKN035 PROB30 2409/2415
      4SM -TSRA OVC015CB
     FM241500 16012KT P6SM OVC015=



000
FTUS44 KTSA 232100 AAA
TAFFSM
TAF AMD
KFSM 232115Z 2321/2418 09009KT P6SM SCT027 PROB30 2412/2418 4SM
      -TSRA OVC015CB=



000
FTUS44 KTSA 232100 AAA
TAFMLC
TAF AMD
KMLC 232114Z 2321/2418 VRB03KT P6SM OVC025
     FM240600 14008KT 4SM BR OVC015
     FM241500 18012KT P6SM OVC015=



000
FTUS44 KTSA 232100 AAA
TAFMLC
TAF AMD
KMLC 232114Z 2321/2418 VRB03KT P6SM OVC025
     FM240600 14008KT 4SM BR OVC015
     FM241500 18012KT P6SM OVC015=



000
FTUS44 KTSA 232100 AAA
TAFFYV
TAF AMD
KFYV 232114Z 2321/2418 16010KT P6SM OVC027
     FM240600 15009KT P6SM OVC025 PROB30 2411/2417 4SM -TSRA
      OVC015CB=



000
FTUS44 KTSA 231700
TAFFSM
TAF
KFSM 231720Z 2318/2418 09011KT P6SM OVC035
     FM232100 09011KT P6SM OVC025 PROB30 2412/2418 4SM -TSRA
      OVC015CB=



000
FTUS44 KTSA 231700
TAFTUL
TAF
KTUL 231720Z 2318/2418 13010KT P6SM OVC024 PROB30 2409/2415 4SM
      -TSRA OVC015CB
     FM241500 16014KT P6SM OVC015=



000
FTUS44 KTSA 231700
TAFFYV
TAF
KFYV 231720Z 2318/2418 12011KT P6SM OVC060
     FM240600 15009KT P6SM OVC025 PROB30 2411/2417 4SM -TSRA
      OVC015CB=



000
FTUS44 KTSA 231700
TAFFYV
TAF
KFYV 231720Z 2318/2418 12011KT P6SM OVC060
     FM240600 15009KT P6SM OVC025 PROB30 2411/2417 4SM -TSRA
      OVC015CB=



000
FTUS44 KTSA 231700
TAFMLC
TAF
KMLC 231720Z 2318/2418 11007KT P6SM OVC012
     FM240600 14008KT 4SM BR OVC015
     FM241500 18012KT P6SM OVC015=



000
FTUS44 KTSA 231700
TAFRVS
TAF
KRVS 231720Z 2318/2418 13009KT P6SM OVC021 PROB30 2409/2415 4SM
      -TSRA OVC015CB
     FM241500 16012KT P6SM OVC015=



000
FTUS44 KTSA 231700
TAFXNA
TAF
KXNA 231720Z 2318/2418 12012KT P6SM OVC060
     FM240600 15009KT P6SM OVC025 PROB30 2411/2417 4SM -TSRA
      OVC015CB=



000
FTUS44 KTSA 231700
TAFRVS
TAF
KRVS 231720Z 2318/2418 13009KT P6SM OVC021 PROB30 2409/2415 4SM
      -TSRA OVC015CB
     FM241500 16012KT P6SM OVC015=



000
FTUS44 KTSA 231700
TAFMLC
TAF
KMLC 231720Z 2318/2418 11007KT P6SM OVC012
     FM240600 14008KT 4SM BR OVC015
     FM241500 18012KT P6SM OVC015=



000
FTUS44 KTSA 231700
TAFXNA
TAF
KXNA 231720Z 2318/2418 12012KT P6SM OVC060
     FM240600 15009KT P6SM OVC025 PROB30 2411/2417 4SM -TSRA
      OVC015CB=



000
FTUS44 KTSA 231700
TAFTUL
TAF
KTUL 231720Z 2318/2418 13010KT P6SM OVC024 PROB30 2409/2415 4SM
      -TSRA OVC015CB
     FM241500 16014KT P6SM OVC015=



000
FTUS44 KTSA 231700
TAFFSM
TAF
KFSM 231720Z 2318/2418 09011KT P6SM OVC035
     FM232100 09011KT P6SM OVC025 PROB30 2412/2418 4SM -TSRA
      OVC015CB=



000
FTUS44 KTSA 231100
TAFFYV
TAF
KFYV 231139Z 2312/2412 08004KT P6SM SCT035 BKN070
     FM232000 11008KT P6SM BKN060
     FM240500 14007KT P6SM OVC025 PROB30 2405/2411 5SM -TSRA
      OVC025CB=



000
FTUS44 KTSA 231100
TAFFSM
TAF
KFSM 231139Z 2312/2412 09005KT P6SM VCSH BKN050 OVC090
     FM231400 08012KT P6SM OVC035
     FM231800 10011KT P6SM OVC060
     FM240400 08008KT P6SM OVC035 PROB30 2406/2412 5SM -TSRA
      OVC025CB=



000
FTUS44 KTSA 231100
TAFRVS
TAF
KRVS 231139Z 2312/2412 03005KT P6SM BKN040 BKN060
     FM231500 09008KT P6SM OVC025
     FM240200 13010KT P6SM OVC025 PROB30 2402/2408 5SM -TSRA
      BKN015CB=



000
FTUS44 KTSA 231100
TAFXNA
TAF
KXNA 231139Z 2312/2412 08004KT P6SM SCT040 BKN090
     FM232000 11008KT P6SM OVC060
     FM240500 14007KT P6SM OVC025 PROB30 2405/2411 5SM -TSRA
      OVC025CB=



000
FTUS44 KTSA 231100
TAFRVS
TAF
KRVS 231139Z 2312/2412 03005KT P6SM BKN040 BKN060
     FM231500 09008KT P6SM OVC025
     FM240200 13010KT P6SM OVC025 PROB30 2402/2408 5SM -TSRA
      BKN015CB=



000
FTUS44 KTSA 231100
TAFFSM
TAF
KFSM 231139Z 2312/2412 09005KT P6SM VCSH BKN050 OVC090
     FM231400 08012KT P6SM OVC035
     FM231800 10011KT P6SM OVC060
     FM240400 08008KT P6SM OVC035 PROB30 2406/2412 5SM -TSRA
      OVC025CB=



000
FTUS44 KTSA 231100
TAFTUL
TAF
KTUL 231139Z 2312/2412 03005KT P6SM BKN040 BKN060
     FM231500 09008KT P6SM OVC025
     FM240200 13010KT P6SM OVC025 PROB30 2402/2408 5SM -TSRA
      BKN015CB=



000
FTUS44 KTSA 231100
TAFXNA
TAF
KXNA 231139Z 2312/2412 08004KT P6SM SCT040 BKN090
     FM232000 11008KT P6SM OVC060
     FM240500 14007KT P6SM OVC025 PROB30 2405/2411 5SM -TSRA
      OVC025CB=



000
FTUS44 KTSA 231100
TAFMLC
TAF
KMLC 231139Z 2312/2412 05007KT P6SM BKN025 BKN120
     FM231500 08009KT P6SM OVC015
     FM231900 11011KT P6SM OVC015
     FM240400 14008G14KT P6SM SCT015 BKN025 PROB30 2404/2410 3SM
      -TSRA OVC015CB=



000
FTUS44 KTSA 231100
TAFFYV
TAF
KFYV 231139Z 2312/2412 08004KT P6SM SCT035 BKN070
     FM232000 11008KT P6SM BKN060
     FM240500 14007KT P6SM OVC025 PROB30 2405/2411 5SM -TSRA
      OVC025CB=



000
FTUS44 KTSA 231100
TAFMLC
TAF
KMLC 231139Z 2312/2412 05007KT P6SM BKN025 BKN120
     FM231500 08009KT P6SM OVC015
     FM231900 11011KT P6SM OVC015
     FM240400 14008G14KT P6SM SCT015 BKN025 PROB30 2404/2410 3SM
      -TSRA OVC015CB=



000
FTUS44 KTSA 231100
TAFTUL
TAF
KTUL 231139Z 2312/2412 03005KT P6SM BKN040 BKN060
     FM231500 09008KT P6SM OVC025
     FM240200 13010KT P6SM OVC025 PROB30 2402/2408 5SM -TSRA
      BKN015CB=



000
FTUS44 KTSA 230800 AAA
TAFMLC
TAF AMD
KMLC 230843Z 2309/2406 05007KT P6SM VCSH BKN025 BKN150
      TEMPO 2309/2311 4SM -TSRA OVC015CB
     FM231100 08009KT P6SM OVC015
     FM231800 11011KT P6SM OVC015 PROB30 2400/2406 2SM -TSRA
      BKN007CB=



000
FTUS44 KTSA 230500
TAFXNA
TAF
KXNA 230520Z 2306/2406 06004KT P6SM SCT050 BKN100
     FM231200 10010KT P6SM BKN025 OVC050=



000
FTUS44 KTSA 230500
TAFMLC
TAF
KMLC 230520Z 2306/2406 05007KT P6SM SCT050 BKN150
     FM231000 08009KT P6SM OVC007
     FM231800 11011KT P6SM OVC015 PROB30 2400/2406 2SM -TSRA
      BKN007CB=



000
FTUS44 KTSA 230500
TAFMLC
TAF
KMLC 230520Z 2306/2406 05007KT P6SM SCT050 BKN150
     FM231000 08009KT P6SM OVC007
     FM231800 11011KT P6SM OVC015 PROB30 2400/2406 2SM -TSRA
      BKN007CB=



000
FTUS44 KTSA 230500
TAFFSM
TAF
KFSM 230520Z 2306/2406 09005KT P6SM SCT050 BKN150
     FM230900 08012KT P6SM OVC025
     FM231800 10011KT P6SM OVC015=



000
FTUS44 KTSA 230500
TAFFYV
TAF
KFYV 230520Z 2306/2406 VRB02KT P6SM SCT050 BKN100
     FM231200 11008KT P6SM BKN025 OVC050=



000
FTUS44 KTSA 230500
TAFRVS
TAF
KRVS 230520Z 2306/2406 03006KT P6SM BKN050 BKN250
     FM231200 09008KT P6SM OVC025
     FM231800 11011KT P6SM OVC015 PROB30 2400/2406 4SM -TSRA
      BKN010CB=



000
FTUS44 KTSA 230500
TAFTUL
TAF
KTUL 230520Z 2306/2406 03005KT P6SM BKN050 BKN250
     FM231200 08010KT P6SM OVC025
     FM231800 11011KT P6SM OVC015 PROB30 2400/2406 4SM -TSRA
      BKN010CB=



000
FTUS44 KTSA 230500
TAFXNA
TAF
KXNA 230520Z 2306/2406 06004KT P6SM SCT050 BKN100
     FM231200 10010KT P6SM BKN025 OVC050=



000
FTUS44 KTSA 230500
TAFTUL
TAF
KTUL 230520Z 2306/2406 03005KT P6SM BKN050 BKN250
     FM231200 08010KT P6SM OVC025
     FM231800 11011KT P6SM OVC015 PROB30 2400/2406 4SM -TSRA
      BKN010CB=



000
FTUS44 KTSA 230500
TAFRVS
TAF
KRVS 230520Z 2306/2406 03006KT P6SM BKN050 BKN250
     FM231200 09008KT P6SM OVC025
     FM231800 11011KT P6SM OVC015 PROB30 2400/2406 4SM -TSRA
      BKN010CB=



000
FTUS44 KTSA 230500
TAFFSM
TAF
KFSM 230520Z 2306/2406 09005KT P6SM SCT050 BKN150
     FM230900 08012KT P6SM OVC025
     FM231800 10011KT P6SM OVC015=



000
FTUS44 KTSA 230500
TAFFYV
TAF
KFYV 230520Z 2306/2406 VRB02KT P6SM SCT050 BKN100
     FM231200 11008KT P6SM BKN025 OVC050=



000
FTUS44 KTSA 222300
TAFMLC
TAF
KMLC 222320Z 2300/2324 05007KT P6SM FEW021 SCT150
     FM231000 08009KT P6SM OVC007=



000
FTUS44 KTSA 222300
TAFTUL
TAF
KTUL 222320Z 2300/2324 04005KT P6SM SCT050 BKN150 BKN250
     FM231200 08010KT P6SM OVC025=



000
FTUS44 KTSA 222300
TAFFYV
TAF
KFYV 222320Z 2300/2324 VRB04KT P6SM FEW120
     FM230200 05002KT P6SM SCT050 BKN100
     FM231500 11008KT P6SM SCT025 OVC050=



000
FTUS44 KTSA 222300
TAFXNA
TAF
KXNA 222320Z 2300/2324 04009KT P6SM BKN150
     FM230200 06004KT P6SM SCT050 BKN100
     FM231500 10010KT P6SM SCT025 OVC050=



000
FTUS44 KTSA 222300
TAFRVS
TAF
KRVS 222320Z 2300/2324 06006KT P6SM SCT050 BKN150 BKN250
     FM231200 09008KT P6SM OVC025=



000
FTUS44 KTSA 222300
TAFRVS
TAF
KRVS 222320Z 2300/2324 06006KT P6SM SCT050 BKN150 BKN250
     FM231200 09008KT P6SM OVC025=



000
FTUS44 KTSA 222300
TAFMLC
TAF
KMLC 222320Z 2300/2324 05007KT P6SM FEW021 SCT150
     FM231000 08009KT P6SM OVC007=



000
FTUS44 KTSA 222300
TAFFSM
TAF
KFSM 222320Z 2300/2324 11005KT P6SM BKN150
     FM230900 08012KT P6SM OVC025=



000
FTUS44 KTSA 222300
TAFTUL
TAF
KTUL 222320Z 2300/2324 04005KT P6SM SCT050 BKN150 BKN250
     FM231200 08010KT P6SM OVC025=



000
FTUS44 KTSA 222300
TAFFYV
TAF
KFYV 222320Z 2300/2324 VRB04KT P6SM FEW120
     FM230200 05002KT P6SM SCT050 BKN100
     FM231500 11008KT P6SM SCT025 OVC050=



000
FTUS44 KTSA 222000 AAA
TAFMLC
TAF AMD
KMLC 222018Z 2220/2318 35012KT P6SM VCSH SCT050 SCT090
     FM222300 05006KT P6SM BKN100 OVC250
     FM231000 08009KT P6SM OVC007=



    US Dept of Commerce
    National Oceanic and Atmospheric Administration
    National Weather Service
    1325 East West Highway
    Silver Spring, MD 20910
    Page Author: NWS Internet Services Team
Disclaimer
Information Quality
Credits
Glossary
Privacy Policy
Freedom of Information Act (FOIA)
About Us
Career Opportunities